Time;durP1;ratioP1;P1;durP2;ratioP2;P2;SDS_P1;SDS_P2;PMS_P1;PMS_P2;Temp;Humidity;BMP_temperature;BMP_pressure;BME280_temperature;BME280_humidity;BME280_pressure;Samples;Min_cycle;Max_cycle;Signal;HPM_P1;HPM_P2
2021/12/12 00:02:06;;;;;;;11.03;8.80;;;;;;;;;;5080083;28;20393;-79
2021/12/12 00:04:35;;;;;;;11.27;8.83;;;;;;;;;;5078875;28;20400;-79
2021/12/12 00:07:04;;;;;;;11.10;8.13;;;;;;;;;;5078652;28;20432;-78
2021/12/12 00:09:41;;;;;;;11.33;8.80;;;;;;;;;;5077982;28;20436;-80
2021/12/12 00:12:11;;;;;;;13.73;9.03;;;;;;;;;;5078328;28;20389;-80
2021/12/12 00:14:37;;;;;;;12.10;8.40;;;;;;;;;;5077781;28;20444;-78
2021/12/12 00:17:04;;;;;;;10.10;9.00;;;;;;;;;;5078373;28;20507;-81
2021/12/12 00:19:32;;;;;;;11.57;8.83;;;;;;;;;;5077765;28;20411;-79
2021/12/12 00:22:00;;;;;;;12.87;9.07;;;;;;;;;;5078763;28;20503;-79
2021/12/12 00:24:26;;;;;;;11.57;8.60;;;;;;;;;;5077746;28;20972;-80
2021/12/12 00:26:53;;;;;;;11.00;8.43;;;;;;;;;;5077893;28;20910;-80
2021/12/12 00:29:20;;;;;;;10.80;8.37;;;;;;;;;;5078089;28;20424;-79
2021/12/12 00:31:48;;;;;;;13.17;8.80;;;;;;;;;;5077793;28;20769;-80
2021/12/12 00:34:14;;;;;;;11.67;8.13;;;;;;;;;;5077789;28;20445;-80
2021/12/12 00:36:41;;;;;;;12.97;9.43;;;;;;;;;;5076184;28;20413;-79
2021/12/12 00:39:18;;;;;;;12.53;8.70;;;;;;;;;;5077249;28;20416;-79
2021/12/12 00:41:44;;;;;;;14.53;9.70;;;;;;;;;;5077857;28;20388;-80
2021/12/12 00:44:12;;;;;;;11.90;8.30;;;;;;;;;;5078120;28;20412;-80
2021/12/12 00:46:38;;;;;;;11.57;8.63;;;;;;;;;;5077543;28;20405;-79
2021/12/12 00:49:04;;;;;;;11.60;8.63;;;;;;;;;;5077143;28;20416;-80
2021/12/12 00:51:33;;;;;;;13.10;9.37;;;;;;;;;;5077389;28;20437;-80
2021/12/12 00:53:59;;;;;;;13.73;9.63;;;;;;;;;;5076674;28;20902;-79
2021/12/12 00:56:25;;;;;;;13.80;9.30;;;;;;;;;;5076991;28;20405;-78
2021/12/12 00:58:51;;;;;;;11.60;8.47;;;;;;;;;;5076725;28;20497;-79
2021/12/12 01:01:20;;;;;;;10.47;8.93;;;;;;;;;;5077461;28;20425;-79
2021/12/12 01:04:02;;;;;;;13.03;9.27;;;;;;;;;;5077253;28;20408;-78
2021/12/12 01:06:29;;;;;;;12.80;8.93;;;;;;;;;;5077611;28;20385;-81
2021/12/12 01:08:56;;;;;;;12.33;8.73;;;;;;;;;;5076644;28;20484;-81
2021/12/12 01:11:25;;;;;;;12.70;9.13;;;;;;;;;;5078054;28;20405;-79
2021/12/12 01:13:52;;;;;;;11.67;8.63;;;;;;;;;;5077177;28;20773;-80
2021/12/12 01:16:18;;;;;;;12.63;9.77;;;;;;;;;;5076607;28;20519;-80
2021/12/12 01:18:45;;;;;;;12.80;9.20;;;;;;;;;;5076595;22;20481;-67
2021/12/12 01:21:20;;;;;;;16.07;9.47;;;;;;;;;;5053927;28;20888;-67
2021/12/12 01:24:04;;;;;;;13.90;9.43;;;;;;;;;;5054057;28;20393;-67
2021/12/12 01:26:31;;;;;;;12.57;9.40;;;;;;;;;;5054320;28;20378;-67
2021/12/12 01:28:57;;;;;;;16.23;9.03;;;;;;;;;;5055355;28;20398;-67
2021/12/12 01:31:28;;;;;;;13.60;9.30;;;;;;;;;;5070108;22;20484;-66
2021/12/12 01:33:59;;;;;;;12.47;9.00;;;;;;;;;;5053901;28;20755;-66
2021/12/12 01:36:40;;;;;;;12.90;8.80;;;;;;;;;;5053754;28;20390;-66
2021/12/12 01:39:07;;;;;;;12.80;9.47;;;;;;;;;;5053641;28;20385;-66
2021/12/12 01:41:38;;;;;;;11.73;9.27;;;;;;;;;;5053422;28;20414;-67
2021/12/12 01:44:09;;;;;;;13.30;10.50;;;;;;;;;;5053846;28;20382;-66
2021/12/12 01:46:37;;;;;;;14.40;9.30;;;;;;;;;;5053421;28;20469;-66
2021/12/12 01:49:12;;;;;;;12.80;8.93;;;;;;;;;;5053648;28;20447;-66
2021/12/12 01:51:38;;;;;;;14.57;10.20;;;;;;;;;;5053350;28;20420;-67
2021/12/12 01:54:06;;;;;;;13.50;10.50;;;;;;;;;;5053180;28;20410;-66
2021/12/12 01:56:39;;;;;;;11.53;9.67;;;;;;;;;;5053450;28;20409;-66
2021/12/12 01:59:07;;;;;;;13.30;10.00;;;;;;;;;;5053533;28;20379;-66
2021/12/12 02:01:39;;;;;;;13.97;10.53;;;;;;;;;;5053101;28;20421;-66
2021/12/12 02:04:07;;;;;;;13.33;10.00;;;;;;;;;;5053221;28;20489;-66
2021/12/12 02:06:33;;;;;;;13.83;10.03;;;;;;;;;;5052481;28;20421;-66
2021/12/12 02:09:00;;;;;;;14.43;10.83;;;;;;;;;;5050468;28;20892;-67
2021/12/12 02:11:29;;;;;;;15.80;11.00;;;;;;;;;;5037328;28;20434;-67
2021/12/12 02:13:59;;;;;;;12.57;10.00;;;;;;;;;;5053294;28;20397;-67
2021/12/12 02:16:26;;;;;;;13.73;10.60;;;;;;;;;;5052957;28;20413;-67
2021/12/12 02:18:55;;;;;;;16.10;10.93;;;;;;;;;;5052869;28;20417;-67
2021/12/12 02:21:34;;;;;;;15.83;11.80;;;;;;;;;;5052888;28;20422;-67
2021/12/12 02:37:36;;;;;;;12.20;9.43;;;;;;;;;;5053119;28;20525;-67
2021/12/12 02:40:05;;;;;;;12.80;9.83;;;;;;;;;;5052770;28;20414;-67
2021/12/12 02:42:31;;;;;;;14.00;10.00;;;;;;;;;;5053018;28;20524;-67
2021/12/12 02:45:00;;;;;;;13.77;9.67;;;;;;;;;;5052833;28;20402;-67
2021/12/12 02:47:35;;;;;;;17.13;11.97;;;;;;;;;;5052655;28;20398;-67
2021/12/12 02:50:13;;;;;;;13.93;10.07;;;;;;;;;;5051498;28;20398;-67
2021/12/12 02:52:39;;;;;;;12.50;9.83;;;;;;;;;;5052824;28;20764;-67
2021/12/12 02:55:11;;;;;;;12.40;9.90;;;;;;;;;;5052764;28;20857;-67
2021/12/12 02:57:37;;;;;;;12.90;9.97;;;;;;;;;;5052669;28;20403;-67
2021/12/12 03:00:06;;;;;;;18.40;11.47;;;;;;;;;;5052802;28;20402;-67
2021/12/12 03:02:40;;;;;;;14.83;10.03;;;;;;;;;;5052845;28;20405;-67
2021/12/12 03:05:07;;;;;;;16.53;11.03;;;;;;;;;;5051260;28;20414;-67
2021/12/12 03:07:34;;;;;;;15.40;9.97;;;;;;;;;;5052743;28;20791;-67
2021/12/12 03:10:01;;;;;;;15.83;11.60;;;;;;;;;;5052395;28;20409;-67
2021/12/12 03:12:33;;;;;;;15.17;9.97;;;;;;;;;;5052378;28;20513;-67
2021/12/12 03:15:14;;;;;;;14.33;10.30;;;;;;;;;;5052302;28;20441;-67
2021/12/12 03:17:41;;;;;;;12.87;9.80;;;;;;;;;;5054489;28;20969;-67
2021/12/12 03:20:23;;;;;;;13.87;9.77;;;;;;;;;;5054887;28;20908;-66
2021/12/12 03:22:50;;;;;;;16.37;10.00;;;;;;;;;;5056457;28;20883;-66
2021/12/12 03:25:16;;;;;;;13.90;10.73;;;;;;;;;;5056156;28;20406;-67
2021/12/12 03:27:42;;;;;;;12.27;9.07;;;;;;;;;;5056095;28;20491;-66
2021/12/12 03:30:08;;;;;;;14.90;10.50;;;;;;;;;;5056242;28;20414;-66
2021/12/12 03:32:34;;;;;;;14.57;10.20;;;;;;;;;;5055937;28;20480;-66
2021/12/12 03:35:01;;;;;;;16.90;10.90;;;;;;;;;;5055827;28;20484;-66
2021/12/12 03:37:29;;;;;;;15.93;10.40;;;;;;;;;;5056547;28;20393;-66
2021/12/12 03:39:56;;;;;;;15.00;10.20;;;;;;;;;;5056416;28;20457;-66
2021/12/12 03:42:25;;;;;;;14.20;10.00;;;;;;;;;;5053418;28;20441;-66
2021/12/12 03:44:52;;;;;;;11.80;8.37;;;;;;;;;;5052276;28;20432;-67
2021/12/12 03:47:21;;;;;;;14.33;10.00;;;;;;;;;;5055677;28;20433;-66
2021/12/12 03:49:47;;;;;;;16.07;10.30;;;;;;;;;;5055664;28;20433;-66
2021/12/12 03:52:14;;;;;;;14.83;9.63;;;;;;;;;;5055494;28;20428;-66
2021/12/12 03:54:41;;;;;;;13.90;9.73;;;;;;;;;;5055432;28;20446;-66
2021/12/12 03:57:08;;;;;;;13.17;9.47;;;;;;;;;;5055426;28;20420;-66
2021/12/12 03:59:35;;;;;;;11.63;9.40;;;;;;;;;;5055525;28;20405;-66
2021/12/12 04:02:01;;;;;;;15.13;9.80;;;;;;;;;;5055415;28;20425;-66
2021/12/12 04:04:31;;;;;;;15.23;8.60;;;;;;;;;;5055420;28;20829;-66
2021/12/12 04:06:58;;;;;;;13.33;10.67;;;;;;;;;;5055597;28;20394;-66
2021/12/12 04:09:25;;;;;;;12.80;10.07;;;;;;;;;;5055643;28;20398;-66
2021/12/12 04:12:00;;;;;;;11.33;9.10;;;;;;;;;;5055245;28;20428;-66
2021/12/12 04:14:27;;;;;;;15.63;10.47;;;;;;;;;;5055209;28;20467;-66
2021/12/12 04:16:55;;;;;;;15.13;9.70;;;;;;;;;;5055377;28;20417;-66
2021/12/12 04:19:21;;;;;;;14.60;10.80;;;;;;;;;;5054977;28;20390;-66
2021/12/12 04:21:48;;;;;;;13.37;9.40;;;;;;;;;;5054796;28;20453;-66
2021/12/12 04:24:21;;;;;;;20.47;10.37;;;;;;;;;;5054851;28;20410;-66
2021/12/12 04:26:48;;;;;;;19.33;9.60;;;;;;;;;;5055231;28;20406;-66
2021/12/12 04:29:16;;;;;;;15.73;10.90;;;;;;;;;;5051407;28;20508;-66
2021/12/12 04:31:44;;;;;;;11.63;9.00;;;;;;;;;;5038217;28;20561;-66
2021/12/12 04:34:11;;;;;;;15.90;9.80;;;;;;;;;;5033646;28;20407;-66
2021/12/12 04:36:41;;;;;;;18.40;10.20;;;;;;;;;;5035189;28;20913;-66
2021/12/12 04:39:11;;;;;;;12.90;8.67;;;;;;;;;;5034963;28;20403;-66
2021/12/12 04:41:37;;;;;;;12.57;8.93;;;;;;;;;;5034548;28;20481;-66
2021/12/12 04:44:03;;;;;;;11.40;9.20;;;;;;;;;;5034962;28;20446;-66
2021/12/12 04:49:54;;;;;;;13.47;9.60;;;;;;;;;;5034833;28;20450;-66
2021/12/12 04:52:04;;;;;;;14.80;9.97;;;;;;;;;;5034986;28;20955;-66
2021/12/12 04:54:33;;;;;;;14.57;9.67;;;;;;;;;;5035688;28;20523;-66
2021/12/12 04:57:01;;;;;;;10.97;8.27;;;;;;;;;;5034915;28;20490;-67
2021/12/12 04:59:56;;;;;;;11.43;8.83;;;;;;;;;;5033080;28;20411;-67
2021/12/12 05:02:22;;;;;;;11.30;8.80;;;;;;;;;;4997892;28;20807;-67
2021/12/12 05:04:48;;;;;;;11.57;8.83;;;;;;;;;;5033174;28;20408;-67
2021/12/12 05:07:18;;;;;;;14.10;9.20;;;;;;;;;;5034244;28;20438;-67
2021/12/12 05:09:50;;;;;;;14.57;9.53;;;;;;;;;;5034270;28;20553;-67
2021/12/12 05:12:51;;;;;;;15.10;9.70;;;;;;;;;;5034166;28;20430;-66
2021/12/12 05:15:30;;;;;;;17.57;10.17;;;;;;;;;;4976371;28;20459;-67
2021/12/12 05:18:02;;;;;;;11.43;8.80;;;;;;;;;;5029725;28;20403;-66
2021/12/12 05:20:41;;;;;;;14.33;9.50;;;;;;;;;;5034209;28;20421;-66
2021/12/12 05:23:09;;;;;;;13.90;8.60;;;;;;;;;;5033844;28;20406;-66
2021/12/12 05:25:38;;;;;;;11.07;8.00;;;;;;;;;;5033864;28;20391;-66
2021/12/12 05:28:05;;;;;;;13.07;9.30;;;;;;;;;;5033897;28;20904;-66
2021/12/12 05:30:33;;;;;;;11.67;7.40;;;;;;;;;;5033583;28;20921;-67
2021/12/12 05:33:00;;;;;;;12.30;9.00;;;;;;;;;;5033925;28;20398;-67
2021/12/12 05:35:28;;;;;;;14.13;9.30;;;;;;;;;;5032399;28;20458;-67
2021/12/12 05:37:55;;;;;;;12.10;8.43;;;;;;;;;;5033625;28;20410;-67
2021/12/12 05:40:23;;;;;;;12.07;8.77;;;;;;;;;;5032662;28;20482;-67
2021/12/12 05:42:54;;;;;;;12.23;8.80;;;;;;;;;;5033640;28;20407;-66
2021/12/12 05:45:21;;;;;;;10.57;7.70;;;;;;;;;;5032313;28;20410;-66
2021/12/12 05:47:47;;;;;;;12.23;8.17;;;;;;;;;;5032809;28;20844;-65
2021/12/12 05:50:14;;;;;;;10.80;7.40;;;;;;;;;;5033542;28;20501;-66
2021/12/12 05:52:42;;;;;;;13.37;9.00;;;;;;;;;;5033518;28;20395;-66
2021/12/12 05:55:09;;;;;;;8.90;7.03;;;;;;;;;;5033605;28;20541;-65
2021/12/12 05:57:35;;;;;;;10.50;7.60;;;;;;;;;;5033729;28;20395;-66
2021/12/12 06:00:04;;;;;;;11.27;7.77;;;;;;;;;;5032321;28;20406;-66
2021/12/12 06:02:33;;;;;;;10.93;8.77;;;;;;;;;;5033175;28;20540;-66
2021/12/12 06:04:59;;;;;;;9.50;7.97;;;;;;;;;;5033233;28;20426;-65
2021/12/12 06:07:26;;;;;;;9.50;7.30;;;;;;;;;;5033297;28;20412;-66
2021/12/12 06:09:52;;;;;;;12.77;8.03;;;;;;;;;;5033238;28;20806;-66
2021/12/12 06:12:19;;;;;;;12.50;8.77;;;;;;;;;;5031808;28;20818;-66
2021/12/12 06:14:46;;;;;;;12.17;7.77;;;;;;;;;;5033262;28;20443;-66
2021/12/12 06:17:13;;;;;;;12.20;8.17;;;;;;;;;;5033207;28;20398;-66
2021/12/12 06:19:40;;;;;;;10.50;8.07;;;;;;;;;;5033450;28;20404;-66
2021/12/12 06:22:06;;;;;;;13.80;8.30;;;;;;;;;;5033242;28;20418;-66
2021/12/12 06:24:33;;;;;;;10.63;8.17;;;;;;;;;;5033520;28;20432;-66
2021/12/12 06:27:07;;;;;;;9.87;7.30;;;;;;;;;;5033060;28;20402;-66
2021/12/12 06:29:33;;;;;;;10.33;7.30;;;;;;;;;;5033033;28;20423;-66
2021/12/12 06:31:59;;;;;;;9.80;6.70;;;;;;;;;;5032878;28;20818;-66
2021/12/12 06:34:26;;;;;;;13.40;8.10;;;;;;;;;;5032945;28;20454;-66
2021/12/12 06:36:52;;;;;;;9.37;7.50;;;;;;;;;;5032908;28;20402;-66
2021/12/12 06:39:19;;;;;;;11.50;7.80;;;;;;;;;;5033326;28;20414;-65
2021/12/12 06:41:46;;;;;;;10.07;6.53;;;;;;;;;;5032795;28;20498;-65
2021/12/12 06:44:13;;;;;;;10.37;6.97;;;;;;;;;;5033087;28;20486;-65
2021/12/12 06:46:40;;;;;;;11.17;7.17;;;;;;;;;;5033123;28;20410;-66
2021/12/12 06:49:06;;;;;;;8.90;6.80;;;;;;;;;;5033056;28;20397;-67
2021/12/12 06:51:33;;;;;;;9.90;7.17;;;;;;;;;;5032042;28;20426;-65
2021/12/12 06:54:00;;;;;;;7.93;5.80;;;;;;;;;;5037082;28;20788;-66
2021/12/12 06:56:26;;;;;;;10.77;7.20;;;;;;;;;;5036423;28;20454;-66
2021/12/12 06:58:53;;;;;;;10.80;8.20;;;;;;;;;;5036665;28;20403;-66
2021/12/12 07:01:22;;;;;;;9.70;6.67;;;;;;;;;;5036522;28;20564;-66
2021/12/12 07:03:49;;;;;;;10.83;6.93;;;;;;;;;;5035255;28;20407;-66
2021/12/12 07:06:20;;;;;;;7.97;6.37;;;;;;;;;;5036610;28;20931;-66
2021/12/12 07:08:46;;;;;;;7.17;5.40;;;;;;;;;;5036665;28;20460;-66
2021/12/12 07:11:16;;;;;;;8.50;5.63;;;;;;;;;;5035076;28;20433;-66
2021/12/12 07:13:42;;;;;;;7.47;5.90;;;;;;;;;;5035137;28;20937;-66
2021/12/12 07:16:08;;;;;;;7.87;5.40;;;;;;;;;;5036553;28;20447;-66
2021/12/12 07:18:35;;;;;;;9.27;6.80;;;;;;;;;;5036333;28;20458;-66
2021/12/12 07:21:04;;;;;;;8.77;7.77;;;;;;;;;;5036246;28;20417;-66
2021/12/12 07:23:30;;;;;;;9.40;6.10;;;;;;;;;;5036206;28;20387;-66
2021/12/12 07:25:59;;;;;;;8.83;5.63;;;;;;;;;;5034943;28;20403;-66
2021/12/12 07:28:26;;;;;;;6.97;5.53;;;;;;;;;;5036386;28;20411;-66
2021/12/12 07:30:52;;;;;;;8.23;6.03;;;;;;;;;;5049436;23;20476;-83
2021/12/12 07:33:18;;;;;;;8.77;5.90;;;;;;;;;;5082348;28;20401;-83
2021/12/12 07:35:44;;;;;;;6.90;5.27;;;;;;;;;;5082260;28;20539;-84
2021/12/12 07:38:12;;;;;;;7.77;5.60;;;;;;;;;;5082717;28;20413;-83
2021/12/12 07:40:39;;;;;;;6.80;5.20;;;;;;;;;;5080718;28;20409;-83
2021/12/12 07:45:38;;;;;;;7.53;5.90;;;;;;;;;;5074702;22;20485;-67
2021/12/12 07:48:09;;;;;;;9.03;6.73;;;;;;;;;;5055699;28;20464;-66
2021/12/12 07:50:35;;;;;;;8.37;5.27;;;;;;;;;;5055991;28;20436;-66
2021/12/12 07:53:01;;;;;;;7.90;7.10;;;;;;;;;;5055697;28;20402;-66
2021/12/12 07:55:28;;;;;;;7.07;5.73;;;;;;;;;;5056192;28;20454;-68
2021/12/12 07:57:54;;;;;;;8.67;6.37;;;;;;;;;;5055689;28;20433;-67
2021/12/12 08:00:22;;;;;;;7.83;6.10;;;;;;;;;;5055411;28;20394;-66
2021/12/12 08:02:49;;;;;;;8.47;6.40;;;;;;;;;;5055299;28;20434;-66
2021/12/12 08:05:17;;;;;;;9.33;6.77;;;;;;;;;;5054466;28;20455;-66
2021/12/12 08:07:43;;;;;;;9.40;6.63;;;;;;;;;;5055062;28;20444;-66
2021/12/12 08:10:11;;;;;;;9.73;6.93;;;;;;;;;;5055515;28;20414;-67
2021/12/12 08:12:37;;;;;;;7.77;6.63;;;;;;;;;;5055516;28;20434;-67
2021/12/12 08:15:08;;;;;;;7.30;6.57;;;;;;;;;;5055284;28;20821;-67
2021/12/12 08:17:34;;;;;;;11.57;7.80;;;;;;;;;;5055416;28;20900;-67
2021/12/12 08:20:01;;;;;;;6.60;5.73;;;;;;;;;;5055291;28;20395;-67
2021/12/12 08:22:27;;;;;;;7.23;5.70;;;;;;;;;;5055233;28;20457;-67
2021/12/12 08:24:55;;;;;;;8.13;6.17;;;;;;;;;;5055643;28;20406;-67
2021/12/12 08:27:22;;;;;;;10.07;7.00;;;;;;;;;;5055287;28;20409;-67
2021/12/12 08:29:48;;;;;;;8.30;6.57;;;;;;;;;;5054767;28;20405;-66
2021/12/12 08:32:14;;;;;;;6.40;5.60;;;;;;;;;;5053946;28;20480;-69
2021/12/12 08:34:41;;;;;;;9.30;5.80;;;;;;;;;;5053058;28;20460;-65
2021/12/12 08:37:08;;;;;;;7.60;6.60;;;;;;;;;;5054719;28;20422;-64
2021/12/12 08:39:34;;;;;;;6.73;5.87;;;;;;;;;;5053770;28;20448;-65
2021/12/12 08:42:01;;;;;;;8.73;6.10;;;;;;;;;;5054129;28;20529;-65
2021/12/12 08:44:28;;;;;;;7.50;6.00;;;;;;;;;;5054385;28;20425;-64
2021/12/12 08:46:55;;;;;;;8.33;6.17;;;;;;;;;;5056015;28;20485;-66
2021/12/12 08:49:22;;;;;;;7.77;6.00;;;;;;;;;;5056950;28;20485;-65
2021/12/12 08:51:54;;;;;;;8.33;6.30;;;;;;;;;;5057102;28;20561;-66
2021/12/12 08:54:28;;;;;;;10.10;6.93;;;;;;;;;;5056699;28;20442;-66
2021/12/12 08:57:03;;;;;;;9.47;6.70;;;;;;;;;;5055898;28;20414;-65
2021/12/12 08:59:31;;;;;;;8.80;6.60;;;;;;;;;;5042740;28;20421;-64
2021/12/12 09:01:59;;;;;;;12.07;7.73;;;;;;;;;;5053048;28;20449;-70
2021/12/12 09:04:28;;;;;;;10.07;7.00;;;;;;;;;;5054156;28;20425;-65
2021/12/12 09:06:57;;;;;;;9.60;6.80;;;;;;;;;;5054912;28;20394;-66
2021/12/12 09:09:26;;;;;;;10.13;7.20;;;;;;;;;;5053443;28;20908;-65
2021/12/12 09:12:00;;;;;;;10.40;7.10;;;;;;;;;;5054394;28;20956;-65
2021/12/12 09:14:32;;;;;;;8.50;6.50;;;;;;;;;;5053495;28;20409;-66
2021/12/12 09:17:05;;;;;;;9.33;6.83;;;;;;;;;;5052381;28;20505;-65
2021/12/12 09:19:37;;;;;;;9.80;6.67;;;;;;;;;;5052817;28;20425;-64
2021/12/12 09:22:18;;;;;;;8.37;6.60;;;;;;;;;;5053523;28;20792;-66
2021/12/12 09:24:53;;;;;;;10.00;7.30;;;;;;;;;;5053743;28;20532;-67
2021/12/12 09:27:25;;;;;;;10.33;7.43;;;;;;;;;;5053359;28;20887;-66
2021/12/12 09:30:03;;;;;;;10.83;7.50;;;;;;;;;;5052843;28;20759;-66
2021/12/12 09:32:42;;;;;;;10.10;6.90;;;;;;;;;;5053458;28;20499;-66
2021/12/12 09:35:11;;;;;;;9.57;7.70;;;;;;;;;;5032425;28;20458;-67
2021/12/12 09:37:40;;;;;;;9.00;6.83;;;;;;;;;;5034255;28;20966;-67
2021/12/12 09:40:06;;;;;;;10.13;7.47;;;;;;;;;;5051548;28;20416;-67
2021/12/12 09:42:47;;;;;;;12.10;8.40;;;;;;;;;;5053533;28;20835;-66
2021/12/12 09:45:31;;;;;;;11.43;8.00;;;;;;;;;;5052405;28;20440;-66
2021/12/12 09:51:14;;;;;;;8.10;6.30;;;;;;;;;;5053437;28;20413;-67
2021/12/12 09:53:50;;;;;;;11.37;7.60;;;;;;;;;;5034311;28;20395;-68
2021/12/12 09:56:42;;;;;;;9.80;7.13;;;;;;;;;;5051577;28;20882;-68
2021/12/12 09:59:28;;;;;;;11.70;7.50;;;;;;;;;;5030199;28;20416;-67
2021/12/12 10:02:04;;;;;;;11.70;7.63;;;;;;;;;;5053043;28;20417;-68
2021/12/12 10:04:54;;;;;;;9.27;7.53;;;;;;;;;;5053295;28;20382;-67
2021/12/12 10:07:25;;;;;;;10.60;7.77;;;;;;;;;;5041494;28;20908;-66
2021/12/12 10:09:55;;;;;;;10.83;8.03;;;;;;;;;;5053044;28;20938;-68
2021/12/12 10:12:23;;;;;;;9.03;6.47;;;;;;;;;;5053404;28;20460;-68
2021/12/12 10:15:00;;;;;;;9.63;7.23;;;;;;;;;;5052997;28;20472;-68
2021/12/12 10:17:26;;;;;;;7.67;5.87;;;;;;;;;;5053025;28;20489;-68
2021/12/12 10:20:00;;;;;;;10.03;7.37;;;;;;;;;;5052853;28;20398;-68
2021/12/12 10:22:44;;;;;;;11.63;7.40;;;;;;;;;;5053134;28;20782;-68
2021/12/12 10:25:12;;;;;;;7.63;6.37;;;;;;;;;;5052914;28;20408;-68
2021/12/12 10:27:44;;;;;;;10.10;7.20;;;;;;;;;;5052238;28;20475;-67
2021/12/12 10:30:19;;;;;;;9.07;7.07;;;;;;;;;;5053281;28;20971;-67
2021/12/12 10:32:48;;;;;;;8.60;6.27;;;;;;;;;;5053020;28;20417;-68
2021/12/12 10:35:16;;;;;;;9.57;6.80;;;;;;;;;;5052589;28;20544;-68
2021/12/12 10:37:47;;;;;;;9.10;7.30;;;;;;;;;;5053046;28;20775;-68
2021/12/12 10:40:19;;;;;;;9.83;6.80;;;;;;;;;;5051915;28;20425;-67
2021/12/12 10:42:49;;;;;;;9.10;5.83;;;;;;;;;;5053703;28;20437;-67
2021/12/12 10:45:22;;;;;;;7.80;6.00;;;;;;;;;;5052715;28;20430;-68
2021/12/12 10:47:58;;;;;;;9.17;7.17;;;;;;;;;;5053035;28;20406;-68
2021/12/12 10:50:29;;;;;;;7.77;5.37;;;;;;;;;;5052668;28;20398;-68
2021/12/12 10:53:11;;;;;;;7.17;5.50;;;;;;;;;;5052589;28;20556;-68
2021/12/12 10:55:42;;;;;;;11.87;6.70;;;;;;;;;;5052420;28;20445;-68
2021/12/12 10:58:12;;;;;;;9.13;6.63;;;;;;;;;;5052859;28;20390;-68
2021/12/12 11:00:53;;;;;;;8.30;6.00;;;;;;;;;;5052450;28;20888;-67
2021/12/12 11:03:34;;;;;;;7.03;5.37;;;;;;;;;;5052870;28;20390;-67
2021/12/12 11:06:05;;;;;;;8.17;5.87;;;;;;;;;;5052533;28;20976;-67
2021/12/12 11:08:37;;;;;;;8.57;5.77;;;;;;;;;;5051321;28;20421;-68
2021/12/12 11:11:14;;;;;;;7.93;5.50;;;;;;;;;;5052686;28;20433;-67
2021/12/12 11:13:43;;;;;;;8.37;5.77;;;;;;;;;;5052934;28;20405;-67
2021/12/12 11:16:16;;;;;;;7.07;4.83;;;;;;;;;;5052654;28;20448;-67
2021/12/12 11:18:54;;;;;;;8.40;5.10;;;;;;;;;;5052682;28;20406;-67
2021/12/12 11:21:26;;;;;;;7.23;5.17;;;;;;;;;;5052569;28;20786;-68
2021/12/12 11:24:04;;;;;;;7.83;5.70;;;;;;;;;;5052684;28;20417;-68
2021/12/12 11:26:34;;;;;;;5.27;4.17;;;;;;;;;;5052331;28;20417;-68
2021/12/12 11:29:03;;;;;;;5.80;5.20;;;;;;;;;;5052528;28;20733;-68
2021/12/12 11:31:51;;;;;;;6.70;5.07;;;;;;;;;;5052560;28;20820;-67
2021/12/12 11:34:19;;;;;;;6.20;4.97;;;;;;;;;;5052201;28;20872;-67
2021/12/12 11:37:05;;;;;;;5.73;4.67;;;;;;;;;;5052580;28;20889;-67
2021/12/12 11:39:35;;;;;;;5.87;4.80;;;;;;;;;;5055838;28;20390;-68
2021/12/12 11:42:20;;;;;;;7.50;5.17;;;;;;;;;;5055945;28;20418;-68
2021/12/12 11:45:01;;;;;;;6.60;5.07;;;;;;;;;;5055745;28;20448;-68
2021/12/12 11:47:37;;;;;;;5.53;4.50;;;;;;;;;;5056231;28;20390;-68
2021/12/12 11:50:26;;;;;;;6.70;4.47;;;;;;;;;;5055945;28;20746;-69
2021/12/12 11:53:02;;;;;;;6.07;5.10;;;;;;;;;;5055528;28;20426;-68
2021/12/12 11:55:43;;;;;;;5.83;4.13;;;;;;;;;;5055533;28;20445;-68
2021/12/12 11:58:31;;;;;;;5.43;4.10;;;;;;;;;;5055386;28;20429;-68
2021/12/12 12:01:00;;;;;;;5.73;4.80;;;;;;;;;;5055512;28;20467;-68
2021/12/12 12:03:35;;;;;;;4.60;3.90;;;;;;;;;;5055534;28;20394;-68
2021/12/12 12:06:10;;;;;;;4.37;3.70;;;;;;;;;;5055850;28;20398;-67
2021/12/12 12:08:39;;;;;;;5.37;3.80;;;;;;;;;;5055625;28;20410;-67
2021/12/12 12:11:31;;;;;;;4.70;3.40;;;;;;;;;;5055279;28;20429;-67
2021/12/12 12:14:24;;;;;;;4.37;3.83;;;;;;;;;;5052594;28;20476;-67
2021/12/12 12:16:55;;;;;;;4.30;3.90;;;;;;;;;;5052602;28;20414;-67
2021/12/12 12:19:43;;;;;;;4.70;3.70;;;;;;;;;;5055321;28;20743;-68
2021/12/12 12:22:10;;;;;;;4.30;3.63;;;;;;;;;;5055559;28;20438;-67
2021/12/12 12:24:43;;;;;;;4.87;3.60;;;;;;;;;;5055379;28;20473;-68
2021/12/12 12:27:13;;;;;;;4.57;3.70;;;;;;;;;;5055199;28;20370;-67
2021/12/12 12:29:57;;;;;;;6.83;4.23;;;;;;;;;;5055265;28;20391;-67
2021/12/12 12:32:42;;;;;;;11.17;7.47;;;;;;;;;;5054858;28;20426;-67
2021/12/12 12:35:20;;;;;;;5.63;4.80;;;;;;;;;;5055094;28;20978;-67
2021/12/12 12:38:05;;;;;;;7.07;4.20;;;;;;;;;;5055154;28;20413;-68
2021/12/12 12:40:49;;;;;;;5.00;4.00;;;;;;;;;;5056197;28;20983;-67
2021/12/12 12:43:15;;;;;;;5.77;4.60;;;;;;;;;;5054987;28;20744;-68
2021/12/12 12:46:00;;;;;;;5.43;4.20;;;;;;;;;;5055021;28;20838;-68
2021/12/12 12:48:42;;;;;;;5.33;4.67;;;;;;;;;;5054800;28;20405;-67
2021/12/12 12:51:08;;;;;;;7.23;4.90;;;;;;;;;;5054062;28;20417;-68
2021/12/12 12:53:38;;;;;;;5.30;4.30;;;;;;;;;;5054659;28;20489;-66
2021/12/12 12:56:16;;;;;;;7.00;4.60;;;;;;;;;;5054637;28;20484;-68
2021/12/12 12:59:12;;;;;;;7.23;4.37;;;;;;;;;;5054819;28;20382;-68
2021/12/12 13:01:55;;;;;;;5.63;4.90;;;;;;;;;;5000839;28;20824;-68
2021/12/12 13:04:24;;;;;;;4.20;3.63;;;;;;;;;;5054305;28;20392;-69
2021/12/12 13:07:11;;;;;;;7.50;4.60;;;;;;;;;;5054074;28;20434;-67
2021/12/12 13:09:40;;;;;;;4.13;3.70;;;;;;;;;;5054486;28;20455;-67
2021/12/12 13:12:25;;;;;;;4.30;3.80;;;;;;;;;;5053092;28;20814;-67
2021/12/12 13:15:01;;;;;;;4.30;3.10;;;;;;;;;;5054632;28;20477;-68
2021/12/12 13:17:42;;;;;;;3.93;3.17;;;;;;;;;;5054868;28;20393;-68
2021/12/12 13:20:11;;;;;;;4.87;4.07;;;;;;;;;;5054105;28;20406;-67
2021/12/12 13:22:53;;;;;;;5.10;3.63;;;;;;;;;;5054268;28;20437;-67
2021/12/12 13:25:41;;;;;;;4.73;3.43;;;;;;;;;;5054130;28;20463;-67
2021/12/12 13:28:26;;;;;;;5.53;2.70;;;;;;;;;;5054319;28;20387;-67
2021/12/12 13:31:00;;;;;;;3.73;3.00;;;;;;;;;;5053837;28;20787;-68
2021/12/12 13:33:35;;;;;;;2.90;2.30;;;;;;;;;;5053968;28;20793;-68
2021/12/12 13:36:01;;;;;;;3.60;2.67;;;;;;;;;;5053748;28;20456;-68
2021/12/12 13:38:48;;;;;;;3.90;3.10;;;;;;;;;;5053938;28;20433;-67
2021/12/12 13:41:20;;;;;;;6.07;4.00;;;;;;;;;;5023343;28;20511;-68
2021/12/12 13:43:50;;;;;;;4.30;3.00;;;;;;;;;;5053453;28;20905;-68
2021/12/12 13:46:16;;;;;;;4.70;3.70;;;;;;;;;;5054263;28;20747;-68
2021/12/12 13:48:56;;;;;;;4.20;2.83;;;;;;;;;;5053503;28;20405;-68
2021/12/12 13:51:25;;;;;;;4.17;2.77;;;;;;;;;;5054096;28;20825;-68
2021/12/12 13:53:57;;;;;;;4.23;2.60;;;;;;;;;;5053825;28;20406;-68
2021/12/12 13:56:31;;;;;;;3.40;3.03;;;;;;;;;;5054040;28;20499;-68
2021/12/12 13:59:14;;;;;;;4.47;2.53;;;;;;;;;;5053983;28;20389;-68
2021/12/12 14:01:45;;;;;;;4.07;2.63;;;;;;;;;;5052658;28;20460;-68
2021/12/12 14:04:25;;;;;;;4.83;3.77;;;;;;;;;;5053398;28;20481;-68
2021/12/12 14:06:52;;;;;;;3.60;3.00;;;;;;;;;;5053567;28;20492;-68
2021/12/12 14:09:22;;;;;;;4.10;3.27;;;;;;;;;;5053254;28;20885;-68
2021/12/12 14:11:51;;;;;;;24.50;12.80;;;;;;;;;;5053814;28;20438;-68
2021/12/12 14:14:20;;;;;;;4.90;3.17;;;;;;;;;;5053488;28;20405;-68
2021/12/12 14:16:50;;;;;;;4.13;3.20;;;;;;;;;;5054347;28;20456;-68
2021/12/12 14:19:16;;;;;;;3.20;2.33;;;;;;;;;;5053116;28;20443;-68
2021/12/12 14:21:42;;;;;;;4.70;2.50;;;;;;;;;;5053135;28;20819;-68
2021/12/12 14:24:09;;;;;;;2.40;2.20;;;;;;;;;;5053379;28;20757;-68
2021/12/12 14:26:36;;;;;;;3.77;3.07;;;;;;;;;;5052862;28;20394;-68
2021/12/12 14:29:06;;;;;;;2.90;2.40;;;;;;;;;;5053201;28;20422;-68
2021/12/12 14:31:34;;;;;;;3.93;2.90;;;;;;;;;;5053353;28;20422;-68
2021/12/12 14:34:08;;;;;;;3.13;2.50;;;;;;;;;;5053006;28;20398;-68
2021/12/12 14:36:35;;;;;;;4.47;2.90;;;;;;;;;;5053172;28;20441;-68
2021/12/12 14:39:02;;;;;;;3.93;2.97;;;;;;;;;;5053231;28;20950;-68
2021/12/12 14:41:37;;;;;;;4.47;3.33;;;;;;;;;;5053019;28;20433;-68
2021/12/12 14:44:06;;;;;;;3.57;2.70;;;;;;;;;;5051405;28;20465;-68
2021/12/12 14:46:36;;;;;;;3.67;2.83;;;;;;;;;;5052640;28;20456;-68
2021/12/12 14:49:05;;;;;;;3.33;2.70;;;;;;;;;;5051536;28;20994;-68
2021/12/12 14:51:33;;;;;;;4.20;3.17;;;;;;;;;;5052460;28;20798;-68
2021/12/12 14:54:09;;;;;;;3.80;3.13;;;;;;;;;;5053009;28;20835;-68
2021/12/12 14:56:37;;;;;;;4.80;3.00;;;;;;;;;;5052997;28;20461;-68
2021/12/12 14:59:05;;;;;;;3.97;2.97;;;;;;;;;;5052711;28;20767;-68
2021/12/12 15:01:46;;;;;;;5.40;3.00;;;;;;;;;;5052545;28;20505;-67
2021/12/12 15:04:12;;;;;;;4.30;3.00;;;;;;;;;;5052527;28;20465;-68
2021/12/12 15:06:47;;;;;;;6.03;2.50;;;;;;;;;;5051424;28;20422;-68
2021/12/12 15:09:13;;;;;;;5.50;2.57;;;;;;;;;;5048519;28;20765;-67
2021/12/12 15:11:41;;;;;;;3.73;2.73;;;;;;;;;;5052815;28;20421;-67
2021/12/12 15:14:33;;;;;;;6.10;2.57;;;;;;;;;;5055576;28;20435;-67
2021/12/12 15:17:06;;;;;;;5.80;2.50;;;;;;;;;;5053002;28;20448;-67
2021/12/12 15:19:33;;;;;;;3.23;2.10;;;;;;;;;;5056678;28;20378;-68
2021/12/12 15:22:06;;;;;;;3.07;2.43;;;;;;;;;;5056143;28;20801;-67